sensor_id;sensor_type;location;lat;lon;timestamp;pressure;altitude;pressure_sealevel;temperature;humidity
6530;BME280;3298;42.688;23.366;2022-10-16T00:00:38;52605.47;;;-145.06;82.50
6530;BME280;3298;42.688;23.366;2022-10-16T00:03:05;52650.50;;;-145.06;82.57
6530;BME280;3298;42.688;23.366;2022-10-16T00:05:33;52748.78;;;-145.06;84.23
6530;BME280;3298;42.688;23.366;2022-10-16T00:08:04;52795.88;;;-145.06;84.88
6530;BME280;3298;42.688;23.366;2022-10-16T00:10:31;52851.16;;;-145.06;85.53
6530;BME280;3298;42.688;23.366;2022-10-16T00:12:59;52888.00;;;-145.06;85.66
6530;BME280;3298;42.688;23.366;2022-10-16T00:15:26;52879.81;;;-145.06;85.97
6530;BME280;3298;42.688;23.366;2022-10-16T00:17:53;52830.69;;;-145.06;85.35
6530;BME280;3298;42.688;23.366;2022-10-16T00:20:19;52773.34;;;-145.06;84.38
6530;BME280;3298;42.688;23.366;2022-10-16T00:22:46;52759.03;;;-145.06;83.89
6530;BME280;3298;42.688;23.366;2022-10-16T00:25:13;52779.50;;;-145.06;84.80
6530;BME280;3298;42.688;23.366;2022-10-16T00:27:40;52736.50;;;-145.06;84.14
6530;BME280;3298;42.688;23.366;2022-10-16T00:30:09;52687.38;;;-145.06;83.22
6530;BME280;3298;42.688;23.366;2022-10-16T00:32:36;52726.25;;;-145.06;84.10
6530;BME280;3298;42.688;23.366;2022-10-16T00:35:03;52630.03;;;-145.06;83.19
6530;BME280;3298;42.688;23.366;2022-10-16T00:37:30;52593.19;;;-145.06;82.38
6530;BME280;3298;42.688;23.366;2022-10-16T00:39:57;52603.44;;;-145.06;82.14
6530;BME280;3298;42.688;23.366;2022-10-16T00:42:23;52648.47;;;-145.06;82.97
6530;BME280;3298;42.688;23.366;2022-10-16T00:44:52;52587.06;;;-145.06;82.36
6530;BME280;3298;42.688;23.366;2022-10-16T00:47:24;52609.56;;;-145.06;83.06
6530;BME280;3298;42.688;23.366;2022-10-16T00:49:56;52638.22;;;-145.06;83.56
6530;BME280;3298;42.688;23.366;2022-10-16T00:52:25;52621.84;;;-145.06;82.92
6530;BME280;3298;42.688;23.366;2022-10-16T00:54:52;52716.03;;;-145.06;84.09
6530;BME280;3298;42.688;23.366;2022-10-16T00:57:20;52802.00;;;-145.06;85.27
6530;BME280;3298;42.688;23.366;2022-10-16T00:59:47;52777.44;;;-145.06;85.22
6530;BME280;3298;42.688;23.366;2022-10-16T01:02:15;52863.44;;;-145.06;86.06
6530;BME280;3298;42.688;23.366;2022-10-16T01:04:46;52904.38;;;-145.06;86.19
6530;BME280;3298;42.688;23.366;2022-10-16T01:07:20;52947.38;;;-145.06;86.41
6530;BME280;3298;42.688;23.366;2022-10-16T01:09:57;52982.19;;;-145.06;87.31
6530;BME280;3298;42.688;23.366;2022-10-16T01:12:36;53088.66;;;-145.06;87.64
6530;BME280;3298;42.688;23.366;2022-10-16T01:15:10;53193.09;;;-145.06;88.38
6530;BME280;3298;42.688;23.366;2022-10-16T01:17:43;53084.56;;;-145.06;87.84
6530;BME280;3298;42.688;23.366;2022-10-16T01:20:19;52984.22;;;-145.06;86.37
6530;BME280;3298;42.688;23.366;2022-10-16T01:22:57;52937.16;;;-145.06;86.08
6530;BME280;3298;42.688;23.366;2022-10-16T01:28:17;53141.91;;;-145.06;88.20
6530;BME280;3298;42.688;23.366;2022-10-16T01:30:46;53219.69;;;-145.06;89.04
6530;BME280;3298;42.688;23.366;2022-10-16T01:33:17;53434.72;;;-145.06;90.16
6530;BME280;3298;42.688;23.366;2022-10-16T01:35:48;53395.81;;;-145.06;89.87
6530;BME280;3298;42.688;23.366;2022-10-16T01:38:22;53203.31;;;-145.06;87.73
6530;BME280;3298;42.688;23.366;2022-10-16T01:40:56;53154.19;;;-145.06;87.80
6530;BME280;3298;42.688;23.366;2022-10-16T01:43:30;53078.41;;;-145.06;87.02
6530;BME280;3298;42.688;23.366;2022-10-16T01:46:00;52994.47;;;-145.06;86.87
6530;BME280;3298;42.688;23.366;2022-10-16T01:48:29;53029.28;;;-145.06;87.10
6530;BME280;3298;42.688;23.366;2022-10-16T01:51:02;53399.91;;;-145.06;89.44
6530;BME280;3298;42.688;23.366;2022-10-16T01:53:30;53336.41;;;-145.06;89.43
6530;BME280;3298;42.688;23.366;2022-10-16T01:55:58;53301.59;;;-145.06;89.14
6530;BME280;3298;42.688;23.366;2022-10-16T01:58:28;53340.50;;;-145.06;89.40
6530;BME280;3298;42.688;23.366;2022-10-16T02:01:01;53123.47;;;-145.06;87.59
6530;BME280;3298;42.688;23.366;2022-10-16T02:03:29;53125.50;;;-145.06;87.93
6530;BME280;3298;42.688;23.366;2022-10-16T02:05:57;53080.47;;;-145.06;87.72
6530;BME280;3298;42.688;23.366;2022-10-16T02:08:27;53166.47;;;-145.06;87.93
6530;BME280;3298;42.688;23.366;2022-10-16T02:10:55;52949.44;;;-145.06;86.26
6530;BME280;3298;42.688;23.366;2022-10-16T02:13:26;53019.03;;;-145.06;86.92
6530;BME280;3298;42.688;23.366;2022-10-16T02:15:55;53152.13;;;-145.06;87.91
6530;BME280;3298;42.688;23.366;2022-10-16T02:18:22;53256.56;;;-145.06;88.49
6530;BME280;3298;42.688;23.366;2022-10-16T02:20:55;53313.88;;;-145.06;89.55
6530;BME280;3298;42.688;23.366;2022-10-16T02:23:29;53246.31;;;-145.06;88.31
6530;BME280;3298;42.688;23.366;2022-10-16T02:26:03;53256.56;;;-145.06;89.25
6530;BME280;3298;42.688;23.366;2022-10-16T02:28:38;53252.47;;;-145.06;89.06
6530;BME280;3298;42.688;23.366;2022-10-16T02:31:11;53342.56;;;-145.06;89.52
6530;BME280;3298;42.688;23.366;2022-10-16T02:33:40;53260.66;;;-145.06;89.09
6530;BME280;3298;42.688;23.366;2022-10-16T02:36:09;53281.13;;;-145.06;88.85
6530;BME280;3298;42.688;23.366;2022-10-16T02:38:37;53211.50;;;-145.06;88.72
6530;BME280;3298;42.688;23.366;2022-10-16T02:41:05;53152.13;;;-145.06;88.76
6530;BME280;3298;42.688;23.366;2022-10-16T02:43:32;53158.28;;;-145.06;88.52
6530;BME280;3298;42.688;23.366;2022-10-16T02:46:00;53240.19;;;-145.06;89.19
6530;BME280;3298;42.688;23.366;2022-10-16T02:48:28;53385.56;;;-145.06;90.31
6530;BME280;3298;42.688;23.366;2022-10-16T02:50:54;53373.28;;;-145.06;90.20
6530;BME280;3298;42.688;23.366;2022-10-16T02:53:22;53383.50;;;-145.06;90.18
6530;BME280;3298;42.688;23.366;2022-10-16T02:55:49;53414.22;;;-145.06;90.47
6530;BME280;3298;42.688;23.366;2022-10-16T02:58:16;53518.66;;;-145.06;90.73
6530;BME280;3298;42.688;23.366;2022-10-16T03:00:42;53414.22;;;-145.06;89.98
6530;BME280;3298;42.688;23.366;2022-10-16T03:03:09;53383.50;;;-145.06;90.18
6530;BME280;3298;42.688;23.366;2022-10-16T03:05:37;53023.13;;;-145.06;87.21
6530;BME280;3298;42.688;23.366;2022-10-16T03:08:04;52965.81;;;-145.06;87.05
6530;BME280;3298;42.688;23.366;2022-10-16T03:10:31;52924.84;;;-145.06;86.30
6530;BME280;3298;42.688;23.366;2022-10-16T03:12:58;52933.03;;;-145.06;87.05
6530;BME280;3298;42.688;23.366;2022-10-16T03:15:25;52978.09;;;-145.06;87.48
6530;BME280;3298;42.688;23.366;2022-10-16T03:17:53;52916.66;;;-145.06;86.55
6530;BME280;3298;42.688;23.366;2022-10-16T03:20:20;52857.28;;;-145.06;85.96
6530;BME280;3298;42.688;23.366;2022-10-16T03:22:48;52900.28;;;-145.06;86.42
6530;BME280;3298;42.688;23.366;2022-10-16T03:25:15;52765.16;;;-145.06;85.09
6530;BME280;3298;42.688;23.366;2022-10-16T03:27:42;52865.47;;;-145.06;86.38
6530;BME280;3298;42.688;23.366;2022-10-16T03:30:09;52816.34;;;-145.06;85.85
6530;BME280;3298;42.688;23.366;2022-10-16T03:32:36;52810.19;;;-145.06;85.88
6530;BME280;3298;42.688;23.366;2022-10-16T03:35:03;52802.00;;;-145.06;85.59
6530;BME280;3298;42.688;23.366;2022-10-16T03:37:30;52906.44;;;-145.06;86.50
6530;BME280;3298;42.688;23.366;2022-10-16T03:39:58;52951.47;;;-145.06;87.39
6530;BME280;3298;42.688;23.366;2022-10-16T03:42:25;52906.44;;;-145.06;86.57
6530;BME280;3298;42.688;23.366;2022-10-16T03:44:52;53060.00;;;-145.06;88.00
6530;BME280;3298;42.688;23.366;2022-10-16T03:47:19;53117.31;;;-145.06;88.47
6530;BME280;3298;42.688;23.366;2022-10-16T03:49:48;53195.13;;;-145.06;89.28
6530;BME280;3298;42.688;23.366;2022-10-16T03:52:15;53444.94;;;-145.06;90.75
6530;BME280;3298;42.688;23.366;2022-10-16T03:54:42;53313.88;;;-145.06;89.76
6530;BME280;3298;42.688;23.366;2022-10-16T03:57:10;53236.09;;;-145.06;89.09
6530;BME280;3298;42.688;23.366;2022-10-16T03:59:37;52963.75;;;-145.06;86.78
6530;BME280;3298;42.688;23.366;2022-10-16T04:02:04;53107.09;;;-145.06;88.26
6530;BME280;3298;42.688;23.366;2022-10-16T04:04:31;53293.41;;;-145.06;89.67
6530;BME280;3298;42.688;23.366;2022-10-16T04:06:57;53326.19;;;-145.06;89.88
6530;BME280;3298;42.688;23.366;2022-10-16T04:09:24;53264.75;;;-145.06;89.24
6530;BME280;3298;42.688;23.366;2022-10-16T04:11:51;53254.50;;;-145.06;89.37
6530;BME280;3298;42.688;23.366;2022-10-16T04:14:19;53375.31;;;-145.06;90.29
6530;BME280;3298;42.688;23.366;2022-10-16T04:16:46;53221.75;;;-145.06;89.20
6530;BME280;3298;42.688;23.366;2022-10-16T04:19:13;53162.38;;;-145.06;88.43
6530;BME280;3298;42.688;23.366;2022-10-16T04:21:39;52959.66;;;-145.06;86.54
6530;BME280;3298;42.688;23.366;2022-10-16T04:24:06;52986.28;;;-145.06;87.42
6530;BME280;3298;42.688;23.366;2022-10-16T04:26:33;52992.41;;;-145.06;87.39
6530;BME280;3298;42.688;23.366;2022-10-16T04:29:00;53064.09;;;-145.06;88.44
6530;BME280;3298;42.688;23.366;2022-10-16T04:31:28;53100.94;;;-145.06;88.60
6530;BME280;3298;42.688;23.366;2022-10-16T04:33:55;53264.75;;;-145.06;89.23
6530;BME280;3298;42.688;23.366;2022-10-16T04:36:21;52951.47;;;-145.06;86.85
6530;BME280;3298;42.688;23.366;2022-10-16T04:38:48;52816.34;;;-145.06;85.92
6530;BME280;3298;42.688;23.366;2022-10-16T04:41:15;52851.16;;;-145.06;86.19
6530;BME280;3298;42.688;23.366;2022-10-16T04:43:42;52785.63;;;-145.06;85.73
6530;BME280;3298;42.688;23.366;2022-10-16T04:46:09;52802.00;;;-145.06;85.94
6530;BME280;3298;42.688;23.366;2022-10-16T04:48:37;52869.56;;;-145.06;86.55
6530;BME280;3298;42.688;23.366;2022-10-16T04:51:04;52928.94;;;-145.06;87.33
6530;BME280;3298;42.688;23.366;2022-10-16T04:53:31;52914.63;;;-145.06;86.76
6530;BME280;3298;42.688;23.366;2022-10-16T04:55:58;52992.41;;;-145.06;87.05
6530;BME280;3298;42.688;23.366;2022-10-16T04:58:25;52818.41;;;-145.06;85.98
6530;BME280;3298;42.688;23.366;2022-10-16T05:00:52;52763.13;;;-145.06;85.38
6530;BME280;3298;42.688;23.366;2022-10-16T05:03:19;53021.09;;;-145.06;88.28
6530;BME280;3298;42.688;23.366;2022-10-16T05:05:47;53401.94;;;-145.06;91.03
6530;BME280;3298;42.688;23.366;2022-10-16T05:08:14;53281.13;;;-145.06;90.09
6530;BME280;3298;42.688;23.366;2022-10-16T05:10:44;53199.22;;;-145.06;88.77
6530;BME280;3298;42.688;23.366;2022-10-16T05:13:11;53070.22;;;-145.06;88.33
6530;BME280;3298;42.688;23.366;2022-10-16T05:15:39;53002.66;;;-145.06;87.63
6530;BME280;3298;42.688;23.366;2022-10-16T05:18:06;53027.22;;;-145.06;88.26
6530;BME280;3298;42.688;23.366;2022-10-16T05:20:33;53068.19;;;-145.06;87.88
6530;BME280;3298;42.688;23.366;2022-10-16T05:23:01;52851.16;;;-145.06;85.77
6530;BME280;3298;42.688;23.366;2022-10-16T05:25:28;52863.44;;;-145.06;86.26
6530;BME280;3298;42.688;23.366;2022-10-16T05:27:55;52885.97;;;-145.06;86.05
6530;BME280;3298;42.688;23.366;2022-10-16T05:30:21;52849.09;;;-145.06;85.60
6530;BME280;3298;42.688;23.366;2022-10-16T05:32:49;52892.09;;;-145.06;86.57
6530;BME280;3298;42.688;23.366;2022-10-16T05:35:17;53119.38;;;-145.06;88.27
6530;BME280;3298;42.688;23.366;2022-10-16T05:37:44;52926.91;;;-145.06;86.71
6530;BME280;3298;42.688;23.366;2022-10-16T05:40:13;52888.00;;;-145.06;85.98
6530;BME280;3298;42.688;23.366;2022-10-16T05:42:41;52875.72;;;-145.06;85.36
6530;BME280;3298;42.688;23.366;2022-10-16T05:45:10;52806.09;;;-145.06;85.30
6530;BME280;3298;42.688;23.366;2022-10-16T05:47:37;52681.22;;;-145.06;84.26
6530;BME280;3298;42.688;23.366;2022-10-16T05:50:04;52785.63;;;-145.06;85.30
6530;BME280;3298;42.688;23.366;2022-10-16T05:52:33;52793.81;;;-145.06;84.95
6530;BME280;3298;42.688;23.366;2022-10-16T05:55:00;52681.22;;;-145.06;83.47
6530;BME280;3298;42.688;23.366;2022-10-16T05:57:28;52709.88;;;-145.06;83.46
6530;BME280;3298;42.688;23.366;2022-10-16T05:59:55;52617.75;;;-145.06;82.88
6530;BME280;3298;42.688;23.366;2022-10-16T06:02:22;52617.75;;;-145.06;82.89
6530;BME280;3298;42.688;23.366;2022-10-16T06:04:49;52613.66;;;-145.06;82.58
6530;BME280;3298;42.688;23.366;2022-10-16T06:07:18;52531.78;;;-145.06;82.00
6530;BME280;3298;42.688;23.366;2022-10-16T06:09:48;52517.44;;;-145.06;81.57
6530;BME280;3298;42.688;23.366;2022-10-16T06:12:15;52595.25;;;-145.06;82.24
6530;BME280;3298;42.688;23.366;2022-10-16T06:14:44;52501.06;;;-145.06;80.94
6530;BME280;3298;42.688;23.366;2022-10-16T06:17:12;52505.16;;;-145.06;80.97
6530;BME280;3298;42.688;23.366;2022-10-16T06:19:40;52515.41;;;-145.06;81.62
6530;BME280;3298;42.688;23.366;2022-10-16T06:22:07;52488.78;;;-145.06;80.57
6530;BME280;3298;42.688;23.366;2022-10-16T06:24:34;52650.50;;;-145.06;80.37
6530;BME280;3298;42.688;23.366;2022-10-16T06:27:01;52478.53;;;-145.06;80.92
6530;BME280;3298;42.688;23.366;2022-10-16T06:29:29;52437.59;;;-145.06;80.18
6530;BME280;3298;42.688;23.366;2022-10-16T06:31:57;52437.59;;;-145.06;79.72
6530;BME280;3298;42.688;23.366;2022-10-16T06:34:24;52368.00;;;-145.06;78.15
6530;BME280;3298;42.688;23.366;2022-10-16T06:36:50;52349.56;;;-145.06;77.88
6530;BME280;3298;42.688;23.366;2022-10-16T06:39:17;52292.25;;;-145.06;78.01
6530;BME280;3298;42.688;23.366;2022-10-16T06:41:44;52302.50;;;-145.06;77.96
6530;BME280;3298;42.688;23.366;2022-10-16T06:44:11;52306.59;;;-145.06;76.69
6530;BME280;3298;42.688;23.366;2022-10-16T06:46:37;52253.38;;;-145.06;76.07
6530;BME280;3298;42.688;23.366;2022-10-16T06:49:05;52261.56;;;-145.06;76.99
6530;BME280;3298;42.688;23.366;2022-10-16T06:51:32;52247.22;;;-145.06;76.47
6530;BME280;3298;42.688;23.366;2022-10-16T06:54:01;52294.31;;;-145.06;76.72
6530;BME280;3298;42.688;23.366;2022-10-16T06:56:29;52232.91;;;-145.06;76.34
6530;BME280;3298;42.688;23.366;2022-10-16T06:58:56;52290.22;;;-145.06;77.09
6530;BME280;3298;42.688;23.366;2022-10-16T07:01:24;52312.72;;;-145.06;77.20
6530;BME280;3298;42.688;23.366;2022-10-16T07:03:51;52322.97;;;-145.06;77.71
6530;BME280;3298;42.688;23.366;2022-10-16T07:06:21;52357.75;;;-145.06;78.24
6530;BME280;3298;42.688;23.366;2022-10-16T07:08:49;52325.00;;;-145.06;77.45
6530;BME280;3298;42.688;23.366;2022-10-16T07:11:17;52259.50;;;-145.06;76.33
6530;BME280;3298;42.688;23.366;2022-10-16T07:13:45;52241.09;;;-145.06;75.89
6530;BME280;3298;42.688;23.366;2022-10-16T07:16:14;52486.75;;;-145.06;76.09
6530;BME280;3298;42.688;23.366;2022-10-16T07:18:41;52384.38;;;-145.06;78.94
6530;BME280;3298;42.688;23.366;2022-10-16T07:21:12;52279.97;;;-145.06;76.19
6530;BME280;3298;42.688;23.366;2022-10-16T07:23:41;52384.38;;;-145.06;78.59
6530;BME280;3298;42.688;23.366;2022-10-16T07:26:09;52290.22;;;-145.06;76.36
6530;BME280;3298;42.688;23.366;2022-10-16T07:28:36;52212.44;;;-145.06;74.87
6530;BME280;3298;42.688;23.366;2022-10-16T07:31:04;52204.25;;;-145.06;74.54
6530;BME280;3298;42.688;23.366;2022-10-16T07:33:31;52228.81;;;-145.06;75.05
6530;BME280;3298;42.688;23.366;2022-10-16T07:35:58;52267.69;;;-145.06;76.67
6530;BME280;3298;42.688;23.366;2022-10-16T07:38:25;52159.22;;;-145.06;73.30
6530;BME280;3298;42.688;23.366;2022-10-16T07:41:03;52140.78;;;-145.06;73.56
6530;BME280;3298;42.688;23.366;2022-10-16T07:43:31;52148.97;;;-145.06;72.91
6530;BME280;3298;42.688;23.366;2022-10-16T07:45:58;52130.56;;;-145.06;73.40
6530;BME280;3298;42.688;23.366;2022-10-16T07:48:27;52335.25;;;-145.06;73.57
6530;BME280;3298;42.688;23.366;2022-10-16T07:50:57;52101.88;;;-145.06;72.31
6530;BME280;3298;42.688;23.366;2022-10-16T07:53:24;52128.50;;;-145.06;72.62
6530;BME280;3298;42.688;23.366;2022-10-16T07:55:51;52151.03;;;-145.06;73.62
6530;BME280;3298;42.688;23.366;2022-10-16T07:58:19;52159.22;;;-145.06;73.76
6530;BME280;3298;42.688;23.366;2022-10-16T08:00:46;52183.78;;;-145.06;74.24
6530;BME280;3298;42.688;23.366;2022-10-16T08:03:12;52138.75;;;-145.06;72.61
6530;BME280;3298;42.688;23.366;2022-10-16T08:05:39;52159.22;;;-145.06;72.80
6530;BME280;3298;42.688;23.366;2022-10-16T08:08:06;52142.84;;;-145.06;72.49
6530;BME280;3298;42.688;23.366;2022-10-16T08:10:33;52130.56;;;-145.06;72.21
6530;BME280;3298;42.688;23.366;2022-10-16T08:13:00;52124.41;;;-145.06;71.26
6530;BME280;3298;42.688;23.366;2022-10-16T08:15:28;52087.56;;;-145.06;71.37
6530;BME280;3298;42.688;23.366;2022-10-16T08:17:57;52142.84;;;-145.06;72.21
6530;BME280;3298;42.688;23.366;2022-10-16T08:20:24;52052.75;;;-145.06;70.28
6530;BME280;3298;42.688;23.366;2022-10-16T08:22:51;52077.31;;;-145.06;70.01
6530;BME280;3298;42.688;23.366;2022-10-16T08:25:19;52030.25;;;-145.06;68.80
6530;BME280;3298;42.688;23.366;2022-10-16T08:27:46;52011.81;;;-145.06;67.45
6530;BME280;3298;42.688;23.366;2022-10-16T08:30:13;52015.91;;;-145.06;67.58
6530;BME280;3298;42.688;23.366;2022-10-16T08:32:41;52003.63;;;-145.06;67.33
6530;BME280;3298;42.688;23.366;2022-10-16T08:35:08;51987.25;;;-145.06;66.00
6530;BME280;3298;42.688;23.366;2022-10-16T08:37:36;51968.84;;;-145.06;65.16
6530;BME280;3298;42.688;23.366;2022-10-16T08:40:04;51958.59;;;-145.06;65.39
6530;BME280;3298;42.688;23.366;2022-10-16T08:42:39;51917.66;;;-145.06;62.08
6530;BME280;3298;42.688;23.366;2022-10-16T08:45:19;51905.38;;;-145.06;62.59
6530;BME280;3298;42.688;23.366;2022-10-16T08:47:58;51901.28;;;-145.06;60.82
6530;BME280;3298;42.688;23.366;2022-10-16T08:50:28;51876.75;;;-145.06;60.33
6530;BME280;3298;42.688;23.366;2022-10-16T08:52:56;51913.56;;;-145.06;60.20
6530;BME280;3298;42.688;23.366;2022-10-16T08:55:30;51911.53;;;-145.06;57.55
6530;BME280;3298;42.688;23.366;2022-10-16T08:57:59;51868.56;;;-145.06;56.94
6530;BME280;3298;42.688;23.366;2022-10-16T09:00:27;51874.69;;;-145.06;55.03
6530;BME280;3298;42.688;23.366;2022-10-16T09:03:03;51866.50;;;-145.06;54.87
6530;BME280;3298;42.688;23.366;2022-10-16T09:05:45;51864.47;;;-145.06;54.45
6530;BME280;3298;42.688;23.366;2022-10-16T09:08:21;51848.09;;;-145.06;55.22
6530;BME280;3298;42.688;23.366;2022-10-16T09:10:56;51860.38;;;-145.06;54.42
6530;BME280;3298;42.688;23.366;2022-10-16T09:13:29;51872.66;;;-145.06;54.62
6530;BME280;3298;42.688;23.366;2022-10-16T09:16:04;51856.28;;;-145.06;53.48
6530;BME280;3298;42.688;23.366;2022-10-16T09:18:45;51852.19;;;-145.06;53.73
6530;BME280;3298;42.688;23.366;2022-10-16T09:21:21;51860.38;;;-145.06;54.20
6530;BME280;3298;42.688;23.366;2022-10-16T09:23:50;51856.28;;;-145.06;54.31
6530;BME280;3298;42.688;23.366;2022-10-16T09:26:17;51866.50;;;-145.06;54.33
6530;BME280;3298;42.688;23.366;2022-10-16T09:28:45;51862.41;;;-145.06;53.66
6530;BME280;3298;42.688;23.366;2022-10-16T09:31:19;51856.28;;;-145.06;52.93
6530;BME280;3298;42.688;23.366;2022-10-16T09:33:52;51872.66;;;-145.06;52.56
6530;BME280;3298;42.688;23.366;2022-10-16T09:36:20;51862.41;;;-145.06;52.45
6530;BME280;3298;42.688;23.366;2022-10-16T09:38:48;51893.09;;;-145.06;52.01
6530;BME280;3298;42.688;23.366;2022-10-16T09:41:18;51852.19;;;-145.06;52.09
6530;BME280;3298;42.688;23.366;2022-10-16T09:43:53;51895.16;;;-145.06;51.22
6530;BME280;3298;42.688;23.366;2022-10-16T09:46:25;51866.50;;;-145.06;50.34
6530;BME280;3298;42.688;23.366;2022-10-16T09:48:56;51850.13;;;-145.06;49.77
6530;BME280;3298;42.688;23.366;2022-10-16T09:51:25;51868.56;;;-145.06;49.64
6530;BME280;3298;42.688;23.366;2022-10-16T09:53:55;51876.75;;;-145.06;49.34
6530;BME280;3298;42.688;23.366;2022-10-16T09:56:24;51856.28;;;-145.06;50.05
6530;BME280;3298;42.688;23.366;2022-10-16T09:58:53;51860.38;;;-145.06;50.36
6530;BME280;3298;42.688;23.366;2022-10-16T10:01:21;51876.75;;;-145.06;49.20
6530;BME280;3298;42.688;23.366;2022-10-16T10:03:50;51862.41;;;-145.06;48.22
6530;BME280;3298;42.688;23.366;2022-10-16T10:06:23;51860.38;;;-145.06;47.57
6530;BME280;3298;42.688;23.366;2022-10-16T10:09:05;51876.75;;;-145.06;48.72
6530;BME280;3298;42.688;23.366;2022-10-16T10:14:24;51872.66;;;-145.06;47.76
6530;BME280;3298;42.688;23.366;2022-10-16T10:16:52;51852.19;;;-145.06;47.35
6530;BME280;3298;42.688;23.366;2022-10-16T10:19:21;51872.66;;;-145.06;47.85
6530;BME280;3298;42.688;23.366;2022-10-16T10:21:50;51856.28;;;-145.06;47.79
6530;BME280;3298;42.688;23.366;2022-10-16T10:24:19;51862.41;;;-145.06;48.39
6530;BME280;3298;42.688;23.366;2022-10-16T10:26:54;51852.19;;;-145.06;46.72
6530;BME280;3298;42.688;23.366;2022-10-16T10:29:35;51889.00;;;-145.06;46.83
6530;BME280;3298;42.688;23.366;2022-10-16T10:32:15;51882.88;;;-145.06;46.48
6530;BME280;3298;42.688;23.366;2022-10-16T10:35:04;51878.78;;;-145.06;47.11
6530;BME280;3298;42.688;23.366;2022-10-16T10:37:44;51846.03;;;-145.06;45.61
6530;BME280;3298;42.688;23.366;2022-10-16T10:40:24;51882.88;;;-145.06;44.48
6530;BME280;3298;42.688;23.366;2022-10-16T10:42:59;51874.69;;;-145.06;44.17
6530;BME280;3298;42.688;23.366;2022-10-16T10:45:38;51882.88;;;-145.06;43.49
6530;BME280;3298;42.688;23.366;2022-10-16T10:48:27;51884.91;;;-145.06;41.57
6530;BME280;3298;42.688;23.366;2022-10-16T10:50:59;51876.75;;;-145.06;40.77
6530;BME280;3298;42.688;23.366;2022-10-16T10:53:39;51964.75;;;-145.06;33.69
6530;BME280;3298;42.688;23.366;2022-10-16T10:56:19;52151.03;;;-145.06;27.68
6530;BME280;3298;42.688;23.366;2022-10-16T10:59:12;52275.88;;;-145.06;25.45
6530;BME280;3298;42.688;23.366;2022-10-16T11:01:50;52277.94;;;-145.06;25.40
6530;BME280;3298;42.688;23.366;2022-10-16T11:04:35;52359.81;;;-145.06;24.32
6530;BME280;3298;42.688;23.366;2022-10-16T11:07:05;52165.34;;;-145.06;24.81
6530;BME280;3298;42.688;23.366;2022-10-16T11:09:39;52093.69;;;-145.06;24.67
6530;BME280;3298;42.688;23.366;2022-10-16T11:12:12;52032.28;;;-145.06;24.99
6530;BME280;3298;42.688;23.366;2022-10-16T11:14:47;52101.88;;;-145.06;24.67
6530;BME280;3298;42.688;23.366;2022-10-16T11:17:19;52054.81;;;-145.06;24.99
6530;BME280;3298;42.688;23.366;2022-10-16T11:19:55;52028.19;;;-145.06;28.60
6530;BME280;3298;42.688;23.366;2022-10-16T11:22:25;51970.88;;;-145.06;32.28
6530;BME280;3298;42.688;23.366;2022-10-16T11:25:02;51950.41;;;-145.06;33.39
6530;BME280;3298;42.688;23.366;2022-10-16T11:27:37;51940.19;;;-145.06;35.08
6530;BME280;3298;42.688;23.366;2022-10-16T11:30:14;51934.03;;;-145.06;35.32
6530;BME280;3298;42.688;23.366;2022-10-16T11:32:50;51889.00;;;-145.06;35.51
6530;BME280;3298;42.688;23.366;2022-10-16T11:35:24;51917.66;;;-145.06;36.48
6530;BME280;3298;42.688;23.366;2022-10-16T11:37:53;51921.75;;;-145.06;36.65
6530;BME280;3298;42.688;23.366;2022-10-16T11:40:29;51934.03;;;-145.06;36.51
6530;BME280;3298;42.688;23.366;2022-10-16T11:43:04;51927.91;;;-145.06;36.21
6530;BME280;3298;42.688;23.366;2022-10-16T11:45:36;51929.94;;;-145.06;36.83
6530;BME280;3298;42.688;23.366;2022-10-16T11:48:17;51929.94;;;-145.06;36.58
6530;BME280;3298;42.688;23.366;2022-10-16T11:50:50;51923.81;;;-145.06;36.10
6530;BME280;3298;42.688;23.366;2022-10-16T11:53:28;51913.56;;;-145.06;36.78
6530;BME280;3298;42.688;23.366;2022-10-16T11:55:59;51909.47;;;-145.06;37.42
6530;BME280;3298;42.688;23.366;2022-10-16T11:58:28;51929.94;;;-145.06;37.53
6530;BME280;3298;42.688;23.366;2022-10-16T12:01:05;51905.38;;;-145.06;37.55
6530;BME280;3298;42.688;23.366;2022-10-16T12:03:42;51897.19;;;-145.06;37.56
6530;BME280;3298;42.688;23.366;2022-10-16T12:06:23;51895.16;;;-145.06;36.84
6530;BME280;3298;42.688;23.366;2022-10-16T12:08:58;51905.38;;;-145.06;37.27
6530;BME280;3298;42.688;23.366;2022-10-16T12:11:36;51917.66;;;-145.06;37.56
6530;BME280;3298;42.688;23.366;2022-10-16T12:17:24;51876.75;;;-145.06;37.00
6530;BME280;3298;42.688;23.366;2022-10-16T12:20:00;51936.09;;;-145.06;37.04
6530;BME280;3298;42.688;23.366;2022-10-16T12:22:29;51882.88;;;-145.06;37.01
6530;BME280;3298;42.688;23.366;2022-10-16T12:24:56;51911.53;;;-145.06;37.36
6530;BME280;3298;42.688;23.366;2022-10-16T12:27:28;51913.56;;;-145.06;37.56
6530;BME280;3298;42.688;23.366;2022-10-16T12:29:58;51901.28;;;-145.06;37.19
6530;BME280;3298;42.688;23.366;2022-10-16T12:32:31;51905.38;;;-145.06;37.68
6530;BME280;3298;42.688;23.366;2022-10-16T12:35:00;51911.53;;;-145.06;37.41
6530;BME280;3298;42.688;23.366;2022-10-16T12:37:32;51940.19;;;-145.06;37.49
6530;BME280;3298;42.688;23.366;2022-10-16T12:40:11;51925.84;;;-145.06;37.23
6530;BME280;3298;42.688;23.366;2022-10-16T12:42:40;51950.41;;;-145.06;37.48
6530;BME280;3298;42.688;23.366;2022-10-16T12:45:24;51942.22;;;-145.06;37.54
6530;BME280;3298;42.688;23.366;2022-10-16T12:47:53;51909.47;;;-145.06;36.71
6530;BME280;3298;42.688;23.366;2022-10-16T12:50:28;51936.09;;;-145.06;37.06
6530;BME280;3298;42.688;23.366;2022-10-16T12:52:56;51913.56;;;-145.06;36.80
6530;BME280;3298;42.688;23.366;2022-10-16T12:55:24;51901.28;;;-145.06;36.30
6530;BME280;3298;42.688;23.366;2022-10-16T13:01:16;51917.66;;;-145.06;36.49
6530;BME280;3298;42.688;23.366;2022-10-16T13:04:10;51921.75;;;-145.06;36.43
6530;BME280;3298;42.688;23.366;2022-10-16T13:06:46;51954.50;;;-145.06;36.46
6530;BME280;3298;42.688;23.366;2022-10-16T13:09:32;51909.47;;;-145.06;36.69
6530;BME280;3298;42.688;23.366;2022-10-16T13:12:33;51917.66;;;-145.06;36.85
6530;BME280;3298;42.688;23.366;2022-10-16T13:18:05;51917.66;;;-145.06;37.32
6530;BME280;3298;42.688;23.366;2022-10-16T13:20:52;51919.72;;;-145.06;37.67